Time;durP1;ratioP1;P1;durP2;ratioP2;P2;SDS_P1;SDS_P2;PMS_P1;PMS_P2;Temp;Humidity;BMP_temperature;BMP_pressure;BME280_temperature;BME280_humidity;BME280_pressure;Samples;Min_cycle;Max_cycle;Signal;HPM_P1;HPM_P2
2022/06/02 00:01:54;;;;;;;5.82;2.28;;;;;;;10.34;54.58;100163.94;10366933;28;20084;-78
2022/06/02 00:07:30;;;;;;;5.90;2.50;;;;;;;10.30;54.56;100160.66;10440971;28;20045;-78
2022/06/02 00:13:14;;;;;;;4.28;2.25;;;;;;;10.30;54.65;100160.66;10428485;28;20506;-78
2022/06/02 00:18:32;;;;;;;3.67;2.50;;;;;;;10.14;54.86;100172.03;10425081;28;20126;-77
2022/06/02 00:23:48;;;;;;;3.90;2.25;;;;;;;10.06;55.03;100175.06;10426763;28;20599;-77
2022/06/02 00:29:25;;;;;;;7.63;2.30;;;;;;;9.96;54.87;100173.03;10426585;28;20582;-77
2022/06/02 00:34:36;;;;;;;4.38;2.60;;;;;;;9.85;55.30;100176.19;10364746;28;20472;-77
2022/06/02 00:39:38;;;;;;;5.72;2.50;;;;;;;9.80;55.20;100172.16;10424150;28;20522;-77
2022/06/02 00:45:14;;;;;;;4.30;2.28;;;;;;;9.65;55.78;100181.59;10425382;28;20100;-77
2022/06/02 00:50:38;;;;;;;3.72;2.20;;;;;;;9.61;56.18;100188.75;10424292;28;20119;-78
2022/06/02 01:01:10;;;;;;;3.72;2.50;;;;;;;9.62;55.70;100195.69;10425539;28;20415;-77
2022/06/02 01:06:31;;;;;;;6.18;2.53;;;;;;;9.44;55.74;100199.19;10425607;28;20068;-78
2022/06/02 01:11:39;;;;;;;4.10;2.58;;;;;;;9.19;55.92;100201.38;10424945;28;20056;-78
2022/06/02 01:16:53;;;;;;;3.83;2.70;;;;;;;9.06;56.30;100205.50;10422482;28;20174;-78
2022/06/02 01:22:36;;;;;;;6.28;2.80;;;;;;;8.79;57.51;100209.47;10423356;28;20489;-78
2022/06/02 01:27:56;;;;;;;4.18;2.58;;;;;;;8.94;57.33;100216.53;10423577;28;20102;-77
2022/06/02 01:33:30;;;;;;;4.40;2.55;;;;;;;9.02;57.21;100214.41;10423174;28;20060;-77
2022/06/02 01:38:41;;;;;;;6.38;2.72;;;;;;;8.93;56.89;100219.22;10422601;28;20071;-78
2022/06/02 01:43:58;;;;;;;;;;;;;;;8.72;57.58;100234.13;10424029;28;20158;-77
2022/06/02 01:49:27;;;;;;;3.72;2.60;;;;;;;8.90;57.25;100224.56;10422394;28;20301;-77
2022/06/02 01:54:41;;;;;;;5.00;2.67;;;;;;;8.83;56.89;100237.09;10425043;28;20063;-77
2022/06/02 01:59:58;;;;;;;4.72;2.80;;;;;;;8.71;57.31;100235.03;10439411;28;20049;-78
2022/06/02 02:05:06;;;;;;;5.95;2.67;;;;;;;8.68;56.95;100232.59;10429264;28;20510;-77
2022/06/02 02:10:52;;;;;;;7.03;2.65;;;;;;;8.54;57.44;100238.44;10429569;28;20134;-77
2022/06/02 02:16:33;;;;;;;5.15;2.90;;;;;;;8.41;57.83;100241.69;10418788;28;20057;-77
2022/06/02 02:21:40;;;;;;;5.70;3.00;;;;;;;8.42;57.73;100248.59;10437754;28;20799;-77
2022/06/02 02:27:32;;;;;;;4.65;2.90;;;;;;;8.37;57.78;100246.19;10437681;28;20142;-78
2022/06/02 02:32:59;;;;;;;4.90;2.90;;;;;;;8.31;57.94;100256.03;10416516;28;20092;-78
2022/06/02 02:38:13;;;;;;;4.68;2.90;;;;;;;8.32;57.76;100262.97;10438108;28;20053;-77
2022/06/02 02:43:29;;;;;;;3.53;2.33;;;;;;;8.23;58.05;100261.59;10436778;28;20057;-77
2022/06/02 02:48:54;;;;;;;4.78;3.22;;;;;;;8.17;57.93;100264.50;10435892;28;20059;-77
2022/06/02 02:54:04;;;;;;;4.28;3.25;;;;;;;8.20;57.19;100260.91;10436186;28;20049;-78
2022/06/02 02:59:22;;;;;;;5.75;2.92;;;;;;;7.96;58.31;100262.78;10435836;28;20076;-77
2022/06/02 03:04:50;;;;;;;5.82;3.58;;;;;;;7.95;57.88;100269.78;10433995;28;20354;-78
2022/06/02 03:10:01;;;;;;;5.30;3.63;;;;;;;7.64;57.94;100268.53;10429728;28;20509;-77
2022/06/02 03:15:13;;;;;;;6.82;4.90;;;;;;;7.11;59.54;100284.63;10428469;28;20077;-77
2022/06/02 03:20:26;;;;;;;4.20;3.28;;;;;;;7.15;59.58;100280.97;10445264;28;20045;-78
2022/06/02 03:25:49;;;;;;;5.75;2.88;;;;;;;7.45;59.43;100291.88;10429288;28;20378;-78
2022/06/02 03:31:16;;;;;;;4.07;2.85;;;;;;;7.60;59.08;100293.00;10427897;28;20072;-78
2022/06/02 03:36:44;;;;;;;4.85;3.25;;;;;;;7.73;58.75;100300.22;10428859;28;20091;-77
2022/06/02 03:42:14;;;;;;;4.88;3.47;;;;;;;7.72;58.51;100306.34;10429131;28;20162;-77
2022/06/02 03:47:16;;;;;;;4.63;2.92;;;;;;;7.71;58.00;100315.06;10427964;28;20144;-77
2022/06/02 03:52:36;;;;;;;4.43;2.80;;;;;;;7.70;58.30;100310.78;10427643;28;20088;-78
2022/06/02 03:58:04;;;;;;;6.05;4.30;;;;;;;7.67;57.79;100310.91;10427256;28;20554;-77
2022/06/02 04:03:06;;;;;;;4.82;3.63;;;;;;;7.44;58.48;100316.22;10404838;28;20483;-77
2022/06/02 04:08:47;;;;;;;5.40;3.75;;;;;;;7.50;59.46;100325.53;10425963;28;20288;-77
2022/06/02 04:14:13;;;;;;;4.93;3.67;;;;;;;9.36;56.23;100316.22;10329850;28;20138;-77
2022/06/02 04:25:14;;;;;;;5.13;2.78;;;;;;;14.43;44.59;100317.41;10427976;28;20575;-77
2022/06/02 04:30:23;;;;;;;4.57;2.53;;;;;;;15.60;42.20;100315.09;10443414;28;20555;-78
2022/06/02 04:35:27;;;;;;;3.50;2.63;;;;;;;16.48;40.34;100305.72;10425100;28;20106;-77
2022/06/02 04:40:54;;;;;;;4.30;2.80;;;;;;;17.56;37.64;100296.88;10426207;28;20121;-78
2022/06/02 04:46:26;;;;;;;5.53;2.42;;;;;;;19.07;35.46;100297.00;10424043;28;20096;-77
2022/06/02 04:51:50;;;;;;;3.92;2.50;;;;;;;20.01;33.35;100304.31;10426042;28;20056;-77
2022/06/02 04:57:06;;;;;;;4.20;2.50;;;;;;;20.00;32.73;100303.47;10424874;28;20060;-77
2022/06/02 05:02:29;;;;;;;5.07;2.30;;;;;;;20.87;31.67;100304.84;10423952;28;20081;-78
2022/06/02 05:07:50;;;;;;;4.00;2.40;;;;;;;21.68;31.03;100295.88;10426664;28;20089;-78
2022/06/02 05:13:23;;;;;;;6.50;2.50;;;;;;;22.45;29.11;100314.59;10421706;28;20072;-78
2022/06/02 05:19:12;;;;;;;3.40;2.47;;;;;;;22.73;28.57;100314.41;10424953;28;20513;-78
2022/06/02 05:24:30;;;;;;;5.35;2.50;;;;;;;22.26;29.75;100311.34;10426438;28;20150;-78
2022/06/02 05:29:44;;;;;;;3.65;2.30;;;;;;;19.44;32.41;100310.44;10422644;28;20505;-78
2022/06/02 05:35:06;;;;;;;6.30;2.70;;;;;;;17.09;36.50;100326.31;10439664;28;20537;-77
2022/06/02 05:40:32;;;;;;;5.00;2.85;;;;;;;15.91;39.02;100346.16;10422865;28;20044;-78
2022/06/02 05:45:54;;;;;;;4.40;3.00;;;;;;;15.27;40.80;100349.16;10425014;28;20163;-78
2022/06/02 05:51:29;;;;;;;5.63;3.40;;;;;;;14.77;41.96;100350.16;10432141;28;20059;-77
2022/06/02 05:57:00;;;;;;;5.00;3.35;;;;;;;14.26;43.37;100349.31;10431713;28;20051;-77
2022/06/02 06:02:17;;;;;;;4.53;3.40;;;;;;;13.82;44.12;100364.59;10434429;28;20053;-78
2022/06/02 06:08:23;;;;;;;5.68;3.35;;;;;;;13.94;45.06;100357.69;10431669;28;20122;-78
2022/06/02 06:13:52;;;;;;;6.15;3.60;;;;;;;14.01;45.10;100356.31;10301368;28;20150;-77
2022/06/02 06:19:21;;;;;;;6.55;4.55;;;;;;;14.10;45.02;100355.72;10423123;28;20142;-77
2022/06/02 06:24:54;;;;;;;5.97;4.18;;;;;;;14.03;45.84;100370.22;10432293;28;20474;-78
2022/06/02 06:30:07;;;;;;;5.75;4.78;;;;;;;13.96;46.30;100382.94;10429756;28;20143;-77
2022/06/02 06:35:21;;;;;;;5.60;4.90;;;;;;;14.28;45.56;100388.66;10429938;28;20061;-77
2022/06/02 06:40:44;;;;;;;9.63;7.95;;;;;;;14.47;44.72;100384.66;10431562;28;20461;-77
2022/06/02 06:46:20;;;;;;;9.15;5.70;;;;;;;14.33;45.83;100391.84;10429764;28;20140;-77
2022/06/02 06:51:36;;;;;;;8.82;5.88;;;;;;;14.88;45.37;100394.19;10368337;28;20099;-77
2022/06/02 06:56:54;;;;;;;7.88;5.85;;;;;;;15.28;44.99;100401.78;10421470;28;20506;-77
2022/06/02 07:02:34;;;;;;;13.77;6.38;;;;;;;15.53;44.72;100397.41;10428681;28;20519;-77
2022/06/02 07:07:56;;;;;;;9.55;6.93;;;;;;;16.02;43.80;100401.56;10424161;28;20363;-77
2022/06/02 07:13:12;;;;;;;8.45;6.60;;;;;;;17.31;41.37;100387.06;10428135;28;20057;-77
2022/06/02 07:18:38;;;;;;;10.57;7.22;;;;;;;18.82;38.29;100374.31;10421329;28;20127;-77
2022/06/02 07:24:03;;;;;;;9.43;6.22;;;;;;;20.68;35.27;100368.72;10423301;28;20585;-77
2022/06/02 07:29:20;;;;;;;9.18;6.97;;;;;;;22.10;32.94;100365.34;10421172;28;20413;-77
2022/06/02 07:34:34;;;;;;;11.07;6.80;;;;;;;22.68;32.71;100360.22;10422753;28;20049;-76
2022/06/02 07:39:39;;;;;;;10.52;6.78;;;;;;;23.02;31.24;100357.59;10427032;28;20056;-78
2022/06/02 07:45:13;;;;;;;10.88;7.85;;;;;;;23.59;29.82;100359.44;10426290;28;20053;-78
2022/06/02 07:50:30;;;;;;;11.88;10.60;;;;;;;23.66;29.16;100341.75;10424630;28;20509;-78
2022/06/02 07:55:34;;;;;;;10.35;9.15;;;;;;;23.54;30.09;100337.72;10426926;28;20117;-78
2022/06/02 08:00:54;;;;;;;15.07;9.82;;;;;;;23.69;28.96;100343.25;10426553;28;20040;-75
2022/06/02 08:06:12;;;;;;;12.77;10.00;;;;;;;22.85;30.18;100350.50;10425967;28;20056;-75
2022/06/02 08:11:54;;;;;;;14.40;10.73;;;;;;;22.63;30.63;100352.72;10423755;28;20460;-76
2022/06/02 08:17:13;;;;;;;12.32;9.82;;;;;;;22.72;30.14;100350.91;10419479;28;20132;-75
2022/06/02 08:22:42;;;;;;;14.20;11.18;;;;;;;22.92;29.07;100346.22;10423755;28;20132;-75
2022/06/02 08:27:56;;;;;;;12.70;8.10;;;;;;;23.29;28.43;100350.16;10399944;28;20144;-75
2022/06/02 08:33:04;;;;;;;9.98;8.30;;;;;;;23.04;28.97;100351.09;10438013;28;20053;-76
2022/06/02 08:38:18;;;;;;;8.53;7.37;;;;;;;23.21;28.09;100351.97;10429022;28;20132;-75
2022/06/02 08:44:03;;;;;;;8.87;6.30;;;;;;;22.53;28.13;100353.81;10422311;28;20128;-75
2022/06/02 08:49:20;;;;;;;7.65;5.75;;;;;;;22.93;27.16;100354.03;10423284;28;20523;-75
2022/06/02 08:54:59;;;;;;;9.60;6.93;;;;;;;22.46;28.25;100358.09;10419017;28;20118;-75
2022/06/02 09:00:40;;;;;;;9.40;5.90;;;;;;;22.83;27.78;100357.81;10405482;28;20056;-75
2022/06/02 09:06:09;;;;;;;8.57;6.30;;;;;;;22.67;27.78;100356.72;10403115;28;20138;-75
2022/06/02 09:11:27;;;;;;;9.00;6.77;;;;;;;22.81;27.61;100375.81;10403735;28;20183;-75
2022/06/02 09:16:52;;;;;;;9.50;6.50;;;;;;;23.01;27.43;100361.22;10406220;28;20053;-81
2022/06/02 09:22:10;;;;;;;8.30;5.75;;;;;;;22.77;27.03;100359.31;10425101;28;20489;-81
2022/06/02 09:27:31;;;;;;;8.32;6.50;;;;;;;22.79;27.42;100351.13;10429993;28;20148;-80
2022/06/02 09:32:46;;;;;;;7.00;4.97;;;;;;;23.34;26.79;100363.88;10427673;28;20040;-80
2022/06/02 09:38:09;;;;;;;6.75;4.32;;;;;;;22.68;28.00;100358.38;10430079;28;20475;-79
2022/06/02 09:43:27;;;;;;;7.43;4.78;;;;;;;22.64;27.25;100353.53;10430454;28;20084;-82
2022/06/02 09:48:55;;;;;;;9.10;4.10;;;;;;;22.80;26.89;100358.16;10424095;28;20052;-76
2022/06/02 09:54:21;;;;;;;6.20;3.35;;;;;;;23.57;24.62;100358.78;10416644;28;20057;-76
2022/06/02 09:59:28;;;;;;;8.20;3.97;;;;;;;22.98;26.56;100348.25;10425389;28;20118;-77
2022/06/02 10:05:00;;;;;;;5.63;3.88;;;;;;;22.21;27.48;100351.75;10422457;28;20053;-77
2022/06/02 10:10:14;;;;;;;5.88;3.70;;;;;;;22.05;26.82;100343.66;10423872;28;20041;-77
2022/06/02 10:15:22;;;;;;;5.45;3.90;;;;;;;22.23;27.17;100343.63;10426593;28;20524;-77
2022/06/02 10:20:44;;;;;;;3.45;1.70;;;;;;;22.89;25.55;100336.69;10426074;28;20580;-78
2022/06/02 10:26:00;;;;;;;6.88;3.58;;;;;;;22.82;25.29;100335.66;10426691;28;20064;-78
2022/06/02 10:31:21;;;;;;;4.72;2.63;;;;;;;22.67;25.93;100331.91;10427243;28;20045;-78
2022/06/02 10:36:58;;;;;;;5.13;2.40;;;;;;;22.95;24.96;100320.03;10434241;28;20553;-78
2022/06/02 10:42:13;;;;;;;4.95;2.20;;;;;;;22.34;25.49;100322.88;10437644;28;20118;-77
2022/06/02 10:47:36;;;;;;;4.05;2.50;;;;;;;22.25;26.30;100325.66;10430747;28;20142;-76
2022/06/02 10:53:16;;;;;;;4.63;2.30;;;;;;;21.65;26.49;100316.66;10428687;28;20536;-77
2022/06/02 10:58:43;;;;;;;4.57;2.53;;;;;;;21.05;27.42;100318.16;10428612;28;20103;-76
2022/06/02 11:04:41;;;;;;;3.83;2.30;;;;;;;20.85;27.84;100309.47;10426817;28;20840;-77
2022/06/02 11:10:00;;;;;;;4.82;2.30;;;;;;;20.57;27.55;100314.88;10428824;28;20052;-77
2022/06/02 11:15:26;;;;;;;3.13;1.90;;;;;;;21.15;26.70;100310.16;10432964;28;20122;-77
2022/06/02 11:20:54;;;;;;;5.93;2.05;;;;;;;20.97;27.58;100313.59;10427473;28;20056;-76
2022/06/02 11:26:22;;;;;;;3.45;2.20;;;;;;;21.01;28.09;100307.00;10412205;28;20056;-76
2022/06/02 11:31:53;;;;;;;3.50;1.80;;;;;;;21.16;27.05;100286.06;10423732;28;20146;-77
2022/06/02 11:37:25;;;;;;;4.65;1.70;;;;;;;21.55;26.63;100278.66;10399983;28;20071;-79
2022/06/02 11:48:54;;;;;;;3.75;1.90;;;;;;;21.76;26.27;100281.81;10344434;28;20046;-78
2022/06/02 11:54:21;;;;;;;4.22;2.10;;;;;;;21.43;24.57;100274.53;10346231;28;20438;-77
2022/06/02 11:59:48;;;;;;;2.40;1.60;;;;;;;21.29;25.08;100273.22;10345322;28;20053;-77
2022/06/02 12:11:42;;;;;;;3.75;1.50;;;;;;;21.65;25.88;100264.25;10343553;28;20045;-76
2022/06/02 12:17:05;;;;;;;4.88;1.90;;;;;;;21.51;25.18;100256.00;10339118;28;20150;-76
2022/06/02 12:22:39;;;;;;;2.65;1.10;;;;;;;21.83;23.77;100256.25;10346073;28;20133;-76
2022/06/02 12:27:47;;;;;;;2.15;1.23;;;;;;;21.90;24.62;100259.97;10338120;28;20143;-77
2022/06/02 12:33:07;;;;;;;2.10;1.10;;;;;;;22.28;24.20;100246.25;10343719;28;20109;-77
2022/06/02 12:38:11;;;;;;;;;;;;;;;22.02;24.31;100248.06;10344297;28;20053;-77
2022/06/02 12:43:19;;;;;;;2.03;1.30;;;;;;;21.95;23.97;100238.16;10343659;28;19969;-78
2022/06/02 12:48:27;;;;;;;2.95;1.30;;;;;;;21.70;24.58;100238.00;10423436;28;20057;-77
2022/06/02 12:54:01;;;;;;;3.47;1.20;;;;;;;22.56;24.00;100233.53;10427184;28;20093;-78
2022/06/02 12:59:40;;;;;;;2.28;1.17;;;;;;;22.74;22.70;100236.13;10425660;28;20644;-78
2022/06/02 13:05:03;;;;;;;3.72;1.10;;;;;;;22.86;24.41;100230.31;10426760;28;20135;-78
2022/06/02 13:10:36;;;;;;;2.15;0.93;;;;;;;22.79;22.21;100231.97;10425124;28;20052;-78
2022/06/02 13:16:02;;;;;;;2.97;1.00;;;;;;;22.62;21.88;100231.06;10426246;28;20077;-78
2022/06/02 13:21:42;;;;;;;1.77;1.00;;;;;;;22.41;21.60;100225.28;10425010;28;20064;-78
2022/06/02 13:27:03;;;;;;;1.92;0.82;;;;;;;22.33;21.90;100225.25;10362363;28;20503;-76
2022/06/02 13:32:26;;;;;;;1.45;0.90;;;;;;;22.23;23.18;100211.22;10416179;28;20099;-77
2022/06/02 13:38:01;;;;;;;1.65;0.90;;;;;;;22.01;21.44;100214.41;10409064;28;20053;-77
2022/06/02 13:43:46;;;;;;;3.80;0.90;;;;;;;22.53;21.50;100209.88;10415193;28;20052;-78
2022/06/02 13:49:03;;;;;;;2.58;0.90;;;;;;;22.09;21.94;100211.81;10400591;28;20650;-77
2022/06/02 14:00:48;;;;;;;2.30;0.90;;;;;;;22.57;22.69;100213.88;10393955;28;20087;-77
2022/06/02 14:06:05;;;;;;;1.85;1.00;;;;;;;22.58;20.90;100197.72;10418676;28;20060;-79
2022/06/02 14:11:37;;;;;;;2.95;0.90;;;;;;;22.67;22.11;100183.44;10427058;28;20052;-79
2022/06/02 14:16:59;;;;;;;2.95;0.80;;;;;;;22.96;20.69;100182.19;10403099;28;20084;-78
2022/06/02 14:22:13;;;;;;;1.73;0.95;;;;;;;22.85;20.71;100185.16;10428303;28;20071;-78
2022/06/02 14:27:50;;;;;;;2.42;0.90;;;;;;;22.81;21.28;100176.66;10428308;28;20577;-78
2022/06/02 14:33:03;;;;;;;2.55;0.90;;;;;;;22.48;21.57;100182.84;10428749;28;20522;-78
2022/06/02 14:38:49;;;;;;;1.58;1.00;;;;;;;22.58;22.79;100181.72;10428303;28;20056;-78
2022/06/02 14:44:03;;;;;;;1.08;1.00;;;;;;;22.65;22.33;100182.75;10400613;28;20455;-78
2022/06/02 14:49:08;;;;;;;2.10;1.10;;;;;;;22.34;22.65;100181.66;10425900;28;20415;-78
2022/06/02 14:54:18;;;;;;;2.13;1.00;;;;;;;22.34;22.72;100176.31;10425697;28;20130;-79
2022/06/02 14:59:31;;;;;;;1.67;0.90;;;;;;;22.46;22.62;100175.03;10422449;28;20049;-78
2022/06/02 15:04:51;;;;;;;1.58;0.90;;;;;;;22.29;22.05;100161.81;10425887;28;20111;-77
2022/06/02 15:10:27;;;;;;;4.32;1.10;;;;;;;22.31;23.42;100165.97;10426932;28;20120;-78
2022/06/02 15:15:35;;;;;;;1.77;1.05;;;;;;;22.53;23.11;100154.72;10426899;28;20060;-77
2022/06/02 15:20:38;;;;;;;3.25;1.00;;;;;;;22.69;23.69;100157.44;10423820;28;20510;-77
2022/06/02 15:26:29;;;;;;;1.13;1.02;;;;;;;23.03;22.48;100146.66;10416368;28;20095;-77
2022/06/02 15:32:03;;;;;;;1.48;0.93;;;;;;;23.15;23.16;100139.16;10421303;28;20052;-78
2022/06/02 15:37:42;;;;;;;3.70;1.02;;;;;;;23.40;23.80;100125.69;10428721;28;20061;-77
2022/06/02 15:42:56;;;;;;;4.05;1.20;;;;;;;23.42;23.23;100120.16;10423358;28;20120;-77
2022/06/02 15:48:28;;;;;;;1.65;1.10;;;;;;;23.35;23.99;100135.97;10391211;28;20346;-77
2022/06/02 15:53:48;;;;;;;1.63;1.10;;;;;;;23.26;24.29;100121.00;10396994;28;20045;-77
2022/06/02 15:59:06;;;;;;;2.35;1.20;;;;;;;23.39;24.81;100131.16;10399311;28;20243;-77
2022/06/02 16:04:39;;;;;;;2.05;1.02;;;;;;;22.97;24.69;100120.66;10392490;28;20059;-77
2022/06/02 16:15:58;;;;;;;1.80;1.25;;;;;;;22.60;25.63;100107.75;10404957;28;20147;-78
2022/06/02 16:21:25;;;;;;;3.35;1.38;;;;;;;22.94;25.09;100120.16;10361931;28;20060;-78
2022/06/02 16:26:54;;;;;;;2.20;1.20;;;;;;;22.76;25.83;100109.63;10401041;28;21178;-78
2022/06/02 16:32:45;;;;;;;4.00;1.20;;;;;;;22.40;26.42;100117.03;10406816;28;20143;-78
2022/06/02 16:38:12;;;;;;;3.83;1.40;;;;;;;22.54;25.94;100110.22;10402961;28;20206;-78
2022/06/02 16:43:53;;;;;;;3.15;1.20;;;;;;;22.69;25.93;100111.25;10390881;28;20041;-78
2022/06/02 16:49:47;;;;;;;2.35;1.30;;;;;;;22.40;26.17;100116.19;10394275;28;20045;-78
2022/06/02 16:54:49;;;;;;;2.15;1.20;;;;;;;22.29;26.20;100109.34;10417563;28;20150;-78
2022/06/02 17:00:20;;;;;;;3.17;1.30;;;;;;;21.90;26.43;100110.84;10420370;28;20183;-78
2022/06/02 17:05:41;;;;;;;3.72;1.30;;;;;;;21.82;26.43;100116.94;10428752;28;20136;-77
2022/06/02 17:10:56;;;;;;;2.17;1.10;;;;;;;21.69;26.38;100113.03;10428872;28;20132;-79
2022/06/02 17:16:10;;;;;;;3.42;1.17;;;;;;;21.67;26.78;100121.19;10427135;28;20053;-78
2022/06/02 17:21:31;;;;;;;2.47;1.13;;;;;;;21.70;26.96;100122.72;10441281;28;20055;-78
2022/06/02 17:27:00;;;;;;;2.88;1.20;;;;;;;21.37;26.49;100115.50;10425579;28;20088;-78
2022/06/02 17:32:09;;;;;;;3.03;1.13;;;;;;;21.21;27.20;100126.00;10428852;28;20114;-78
2022/06/02 17:37:26;;;;;;;2.83;1.13;;;;;;;20.99;27.54;100132.63;10425987;28;20159;-78
2022/06/02 17:42:54;;;;;;;4.60;1.52;;;;;;;20.90;27.97;100131.75;10426819;28;20065;-78
2022/06/02 17:48:27;;;;;;;3.08;1.20;;;;;;;20.95;27.74;100140.06;10426518;28;20154;-78
2022/06/02 17:54:06;;;;;;;2.08;1.30;;;;;;;20.65;27.79;100140.47;10425692;28;20079;-78
2022/06/02 17:59:20;;;;;;;2.92;1.30;;;;;;;20.44;28.45;100133.72;10425103;28;20084;-78
2022/06/02 18:04:43;;;;;;;2.58;1.20;;;;;;;20.34;28.88;100147.06;10425705;28;20150;-78
2022/06/02 18:10:02;;;;;;;2.70;1.20;;;;;;;20.19;29.50;100143.25;10423611;28;20049;-78
2022/06/02 18:15:21;;;;;;;3.22;1.20;;;;;;;20.22;29.65;100148.25;10423878;28;20076;-78
2022/06/02 18:21:00;;;;;;;4.15;1.30;;;;;;;20.00;29.45;100144.16;10425148;28;20124;-78
2022/06/02 18:26:17;;;;;;;6.10;1.63;;;;;;;19.88;29.88;100133.88;10422439;28;20098;-77
2022/06/02 18:31:41;;;;;;;3.30;1.20;;;;;;;19.66;30.27;100131.53;10426236;28;20053;-78
2022/06/02 18:36:49;;;;;;;1.73;1.20;;;;;;;19.74;30.50;100124.53;10426618;28;20084;-78
2022/06/02 18:42:09;;;;;;;3.38;1.30;;;;;;;19.56;30.73;100118.31;10423714;28;20470;-78
2022/06/02 18:47:38;;;;;;;2.30;1.25;;;;;;;19.56;30.68;100110.34;10423888;28;20053;-78
2022/06/02 18:53:04;;;;;;;3.78;1.38;;;;;;;19.40;31.32;100102.97;10424093;28;20056;-78
2022/06/02 18:58:36;;;;;;;2.17;1.20;;;;;;;19.35;31.46;100099.94;10431129;28;20440;-78
2022/06/02 19:04:16;;;;;;;3.30;1.30;;;;;;;19.08;31.83;100113.09;10433244;28;21144;-78
2022/06/02 19:15:03;;;;;;;2.78;1.70;;;;;;;18.72;33.60;100128.84;10434519;28;20062;-77
2022/06/02 19:20:42;;;;;;;3.92;1.30;;;;;;;18.40;33.34;100129.09;10432641;28;20084;-78
2022/06/02 19:26:07;;;;;;;2.90;1.65;;;;;;;18.09;33.83;100138.00;10447430;28;20083;-78
2022/06/02 19:31:31;;;;;;;6.05;1.40;;;;;;;17.83;34.26;100142.94;10444559;28;20132;-78
2022/06/02 19:36:40;;;;;;;3.60;1.50;;;;;;;17.71;35.03;100143.97;10430585;28;20135;-78
2022/06/02 19:41:49;;;;;;;4.57;2.33;;;;;;;17.54;35.40;100150.72;10420609;28;20135;-77
2022/06/02 19:47:29;;;;;;;3.47;1.63;;;;;;;17.29;36.40;100160.78;10425947;28;20171;-78
2022/06/02 19:52:37;;;;;;;3.67;2.00;;;;;;;16.98;37.41;100165.16;10422112;28;21069;-78
2022/06/02 19:57:51;;;;;;;6.82;1.63;;;;;;;16.89;37.31;100166.78;10425402;28;20052;-77
2022/06/02 20:03:09;;;;;;;3.53;1.48;;;;;;;16.72;38.47;100179.66;10420814;28;20565;-78
2022/06/02 20:08:16;;;;;;;7.10;1.50;;;;;;;16.55;37.90;100181.00;10407400;28;20080;-78
2022/06/02 20:13:31;;;;;;;3.13;1.55;;;;;;;16.37;38.51;100184.25;10425748;28;20405;-77
2022/06/02 20:18:45;;;;;;;2.53;1.40;;;;;;;16.16;39.35;100192.09;10414852;28;20063;-78
2022/06/02 20:24:10;;;;;;;3.95;1.50;;;;;;;16.04;39.41;100187.78;10429969;28;20112;-78
2022/06/02 20:29:25;;;;;;;1.67;1.30;;;;;;;15.82;40.08;100185.09;10429784;28;20056;-78
2022/06/02 20:34:33;;;;;;;5.05;1.40;;;;;;;15.80;39.94;100190.50;10426928;28;20162;-78
2022/06/02 20:40:09;;;;;;;4.57;1.50;;;;;;;15.64;40.87;100194.44;10425752;28;20100;-78
2022/06/02 20:45:26;;;;;;;2.22;1.40;;;;;;;15.47;41.94;100187.75;10421088;28;20067;-78
2022/06/02 20:50:34;;;;;;;3.10;1.42;;;;;;;15.18;42.25;100197.03;10420043;28;20060;-77
2022/06/02 20:55:46;;;;;;;3.60;1.48;;;;;;;15.06;42.70;100204.03;10421580;28;20057;-77
2022/06/02 21:00:56;;;;;;;2.47;1.40;;;;;;;15.16;42.42;100199.75;10421346;28;20134;-77
2022/06/02 21:06:05;;;;;;;3.33;1.48;;;;;;;15.08;42.96;100196.03;10426947;28;20394;-77
2022/06/02 21:11:28;;;;;;;2.42;1.42;;;;;;;14.63;43.81;100202.03;10426763;28;20102;-77
2022/06/02 21:16:49;;;;;;;4.50;1.58;;;;;;;14.63;43.75;100208.13;10418501;28;20067;-77
2022/06/02 21:22:03;;;;;;;2.63;1.50;;;;;;;14.62;43.92;100202.97;10428975;28;20536;-78
2022/06/02 21:27:10;;;;;;;2.88;1.60;;;;;;;14.49;44.12;100205.66;10426107;28;20080;-77
2022/06/02 21:32:26;;;;;;;3.35;1.60;;;;;;;14.37;44.87;100199.44;10424848;28;20408;-77
2022/06/02 21:37:34;;;;;;;2.40;1.50;;;;;;;14.37;44.73;100209.13;10424646;28;20061;-77
2022/06/02 21:42:44;;;;;;;2.17;1.58;;;;;;;13.95;45.64;100210.34;10425188;28;20632;-78
2022/06/02 21:47:49;;;;;;;;;;;;;;;13.56;46.31;100206.00;10424542;28;20287;-77
2022/06/02 21:53:25;;;;;;;2.75;1.60;;;;;;;13.97;46.10;100205.81;10427916;28;19972;-77
2022/06/02 21:58:39;;;;;;;3.13;1.45;;;;;;;14.16;45.85;100198.34;10426739;28;20122;-78
2022/06/02 22:03:59;;;;;;;3.40;1.65;;;;;;;14.08;46.17;100211.19;10427007;28;20061;-77
2022/06/02 22:09:19;;;;;;;2.80;1.60;;;;;;;13.98;46.07;100202.25;10427075;28;20063;-77
2022/06/02 22:14:42;;;;;;;2.07;1.40;;;;;;;13.98;46.40;100202.25;10428463;28;20056;-77
2022/06/02 22:19:53;;;;;;;3.72;1.50;;;;;;;14.22;45.92;100197.06;10425725;28;20115;-77
2022/06/02 22:25:16;;;;;;;2.53;1.50;;;;;;;14.29;45.79;100199.13;10428402;28;20052;-77
2022/06/02 22:30:36;;;;;;;3.15;1.60;;;;;;;14.33;45.89;100199.78;10445395;28;20084;-77
2022/06/02 22:36:11;;;;;;;3.80;1.52;;;;;;;14.17;46.31;100200.00;10432352;28;20060;-77
2022/06/02 22:41:20;;;;;;;2.17;1.42;;;;;;;14.00;46.73;100189.84;10434978;28;20080;-79
2022/06/02 22:46:40;;;;;;;3.60;1.70;;;;;;;14.16;46.34;100189.59;10434105;28;20157;-77
2022/06/02 22:52:13;;;;;;;4.63;2.00;;;;;;;14.15;46.62;100194.00;10434055;28;20886;-77
2022/06/02 22:57:36;;;;;;;2.42;1.67;;;;;;;14.17;46.56;100188.63;10432383;28;20080;-77
2022/06/02 23:03:09;;;;;;;3.85;1.60;;;;;;;14.27;46.61;100190.50;10435766;28;20148;-79
2022/06/02 23:08:39;;;;;;;2.30;1.58;;;;;;;14.27;46.31;100194.91;10435116;28;20142;-77
2022/06/02 23:13:58;;;;;;;3.00;1.50;;;;;;;14.38;46.52;100200.28;10433055;28;20410;-77
2022/06/02 23:19:49;;;;;;;3.55;1.65;;;;;;;14.45;46.12;100199.72;10430869;28;20084;-78
2022/06/02 23:25:08;;;;;;;2.00;1.50;;;;;;;14.36;46.12;100191.66;10415945;28;20084;-78
2022/06/02 23:30:31;;;;;;;4.45;1.70;;;;;;;14.47;45.50;100192.56;10435095;28;20144;-78
2022/06/02 23:35:44;;;;;;;2.92;1.70;;;;;;;14.42;46.87;100197.31;10450254;28;20052;-77
2022/06/02 23:41:11;;;;;;;3.13;1.63;;;;;;;14.37;46.73;100194.16;10433148;28;20532;-77
2022/06/02 23:46:50;;;;;;;3.25;1.63;;;;;;;14.34;46.63;100198.81;10429482;28;20572;-77
2022/06/02 23:52:01;;;;;;;3.58;1.50;;;;;;;14.28;46.35;100179.03;10429873;28;20239;-77
2022/06/02 23:57:15;;;;;;;2.97;1.58;;;;;;;13.99;47.33;100182.88;10432448;28;20080;-77
